createdAt,value
2023-03-28T00:00:21.108Z,28.40
2023-03-28T00:02:52.588Z,28.30
2023-03-28T00:05:44.124Z,28.30
2023-03-28T00:08:16.028Z,28.30
2023-03-28T00:10:47.791Z,28.30
2023-03-28T00:13:20.666Z,28.30
2023-03-28T00:15:53.422Z,28.30
2023-03-28T00:18:24.814Z,28.30
2023-03-28T00:20:56.158Z,28.30
2023-03-28T00:23:28.604Z,28.30
2023-03-28T00:26:00.334Z,28.30
2023-03-28T00:28:31.986Z,28.30
2023-03-28T00:31:08.326Z,28.30
2023-03-28T00:33:39.826Z,28.30
2023-03-28T00:36:12.943Z,28.30
2023-03-28T00:38:44.655Z,28.40
2023-03-28T00:41:17.179Z,28.40
2023-03-28T00:43:49.892Z,28.50
2023-03-28T00:46:32.787Z,28.40
2023-03-28T00:49:09.375Z,28.50
2023-03-28T00:51:43.050Z,28.50
2023-03-28T00:54:16.620Z,28.50
2023-03-28T00:56:50.494Z,28.40
2023-03-28T00:59:24.917Z,28.50
2023-03-28T01:01:57.611Z,28.50
2023-03-28T01:04:31.789Z,28.40
2023-03-28T01:07:03.201Z,28.50
2023-03-28T01:09:34.895Z,28.50
2023-03-28T01:12:06.932Z,28.50
2023-03-28T01:14:40.545Z,28.50
2023-03-28T01:17:12.525Z,28.50
2023-03-28T01:20:01.074Z,28.60
2023-03-28T01:22:56.200Z,28.60
2023-03-28T01:25:45.308Z,28.70
2023-03-28T01:28:44.308Z,28.80
2023-03-28T01:31:34.852Z,28.90
2023-03-28T01:34:17.237Z,28.90
2023-03-28T01:37:00.867Z,29.10
2023-03-28T01:39:43.450Z,29.10
2023-03-28T01:42:36.517Z,29.10
2023-03-28T01:45:20.302Z,29.10
2023-03-28T01:47:56.793Z,29.10
2023-03-28T01:50:30.398Z,29.10
2023-03-28T01:53:16.080Z,29.20
2023-03-28T01:55:58.986Z,29.30
2023-03-28T01:58:51.316Z,29.40
2023-03-28T02:01:35.101Z,29.40
2023-03-28T02:04:20.869Z,29.50
2023-03-28T02:06:43.485Z,29.50
2023-03-28T02:09:16.984Z,29.60
2023-03-28T02:11:50.828Z,29.70
2023-03-28T02:14:24.387Z,29.70
2023-03-28T02:16:58.697Z,29.80
2023-03-28T02:19:32.286Z,29.80
2023-03-28T02:22:11.543Z,29.80
2023-03-28T02:24:42.823Z,29.90
2023-03-28T02:27:14.018Z,29.90
2023-03-28T02:29:46.213Z,30.00
2023-03-28T02:32:20.177Z,30.00
2023-03-28T02:34:53.880Z,30.00
2023-03-28T02:37:51.587Z,30.00
2023-03-28T02:40:37.377Z,30.00
2023-03-28T02:43:32.137Z,30.00
2023-03-28T02:46:23.853Z,30.00
2023-03-28T02:49:00.462Z,30.00
2023-03-28T02:51:42.971Z,30.00
2023-03-28T02:54:31.623Z,30.00
2023-03-28T02:57:26.085Z,30.00
2023-03-28T03:00:03.825Z,30.10
2023-03-28T03:02:35.235Z,30.10
2023-03-28T03:05:06.879Z,30.10
2023-03-28T03:07:39.814Z,30.10
2023-03-28T03:10:13.511Z,30.10
2023-03-28T03:12:49.141Z,30.10
2023-03-28T03:15:20.626Z,30.20
2023-03-28T03:17:52.124Z,30.30
2023-03-28T03:20:24.127Z,30.50
2023-03-28T03:22:56.736Z,30.60
2023-03-28T03:25:28.383Z,30.60
2023-03-28T03:27:59.714Z,30.80
2023-03-28T03:30:31.071Z,30.90
2023-03-28T03:33:09.601Z,31.00
2023-03-28T03:35:46.154Z,31.10
2023-03-28T03:38:16.178Z,31.20
2023-03-28T03:40:47.276Z,31.30
2023-03-28T03:43:18.862Z,31.40
2023-03-28T03:45:50.157Z,31.40
2023-03-28T03:48:22.379Z,31.50
2023-03-28T03:50:53.817Z,31.60
2023-03-28T03:53:25.279Z,31.80
2023-03-28T03:55:58.945Z,31.90
2023-03-28T03:58:30.192Z,32.10
2023-03-28T04:01:01.358Z,32.20
2023-03-28T04:03:32.679Z,32.30
2023-03-28T04:06:05.349Z,32.40
2023-03-28T04:08:36.984Z,32.50
2023-03-28T04:11:10.142Z,32.50
2023-03-28T04:13:41.429Z,32.70
2023-03-28T04:16:14.477Z,32.70
2023-03-28T04:18:46.908Z,32.80
2023-03-28T04:21:20.041Z,32.80
2023-03-28T04:23:51.560Z,32.80
2023-03-28T04:26:24.332Z,33.00
2023-03-28T04:28:56.495Z,33.00
2023-03-28T04:31:30.885Z,33.10
2023-03-28T04:34:02.347Z,33.10
2023-03-28T04:36:33.657Z,33.10
2023-03-28T04:39:05.021Z,33.20
2023-03-28T04:41:36.382Z,33.20
2023-03-28T04:44:07.727Z,33.40
2023-03-28T04:46:38.900Z,33.50
2023-03-28T04:49:10.207Z,33.70
2023-03-28T04:51:41.363Z,33.80
2023-03-28T04:54:12.836Z,33.90
2023-03-28T04:56:45.452Z,34.10
2023-03-28T04:59:17.356Z,34.20
2023-03-28T05:01:52.412Z,34.30
2023-03-28T05:04:25.321Z,34.30
2023-03-28T05:06:56.687Z,34.20
2023-03-28T05:09:28.241Z,34.20
2023-03-28T05:12:04.236Z,34.20
2023-03-28T05:14:36.007Z,34.20
2023-03-28T05:17:07.441Z,34.20
2023-03-28T05:19:38.620Z,34.20
2023-03-28T05:22:10.297Z,34.20
2023-03-28T05:24:42.070Z,34.20
2023-03-28T05:27:14.360Z,34.10
2023-03-28T05:29:51.782Z,34.10
2023-03-28T05:32:23.373Z,34.10
2023-03-28T05:34:54.597Z,34.30
2023-03-28T05:37:28.508Z,34.40
2023-03-28T05:39:58.659Z,34.50
2023-03-28T05:42:30.129Z,34.60
2023-03-28T05:45:01.282Z,34.70
2023-03-28T05:47:32.848Z,34.80
2023-03-28T05:50:04.601Z,34.80
2023-03-28T05:52:35.920Z,34.70
2023-03-28T05:55:07.703Z,34.70
2023-03-28T05:57:39.157Z,34.70
2023-03-28T06:00:15.026Z,34.70
2023-03-28T06:02:46.508Z,34.70
2023-03-28T06:05:17.929Z,34.80
2023-03-28T06:07:49.360Z,34.80
2023-03-28T06:10:21.218Z,34.80
2023-03-28T06:12:52.677Z,34.90
2023-03-28T06:15:24.028Z,35.10
2023-03-28T06:17:55.571Z,35.20
2023-03-28T06:20:27.012Z,35.30
2023-03-28T06:22:58.676Z,35.40
2023-03-28T06:25:30.096Z,35.40
2023-03-28T06:28:01.708Z,35.40
2023-03-28T06:33:04.107Z,35.50
2023-03-28T06:35:35.462Z,35.60
2023-03-28T06:38:08.084Z,35.60
2023-03-28T06:40:45.711Z,35.60
2023-03-28T06:43:17.043Z,35.70
2023-03-28T06:45:48.474Z,35.70
2023-03-28T06:48:19.879Z,35.70
2023-03-28T06:50:52.572Z,35.60
2023-03-28T06:53:23.923Z,35.50
2023-03-28T06:55:56.261Z,35.40
2023-03-28T06:58:27.609Z,35.40
2023-03-28T07:01:00.171Z,35.40
2023-03-28T07:03:31.769Z,35.50
2023-03-28T07:06:08.184Z,35.50
2023-03-28T07:08:39.829Z,35.60
2023-03-28T07:11:11.550Z,35.60
2023-03-28T07:13:42.867Z,35.50
2023-03-28T07:16:18.339Z,35.50
2023-03-28T07:18:49.584Z,35.50
2023-03-28T07:21:21.939Z,34.40
2023-03-28T07:23:53.176Z,35.60
2023-03-28T07:26:24.292Z,35.60
2023-03-28T07:28:57.452Z,35.60
2023-03-28T07:31:29.031Z,35.60
2023-03-28T07:34:00.966Z,35.60
2023-03-28T07:36:32.522Z,35.70
2023-03-28T07:39:03.694Z,35.60
2023-03-28T07:41:35.329Z,35.70
2023-03-28T07:44:06.565Z,35.60
2023-03-28T07:46:38.794Z,35.60
2023-03-28T07:49:10.436Z,35.50
2023-03-28T07:51:41.801Z,35.50
2023-03-28T07:54:14.376Z,35.50
2023-03-28T07:56:46.863Z,35.50
2023-03-28T07:59:18.469Z,35.40
2023-03-28T08:01:49.683Z,35.50
2023-03-28T08:04:21.124Z,35.60
2023-03-28T08:06:53.420Z,35.60
2023-03-28T08:09:24.641Z,35.60
2023-03-28T08:11:55.967Z,35.50
2023-03-28T08:14:27.234Z,35.40
2023-03-28T08:16:58.597Z,35.40
2023-03-28T08:19:30.123Z,35.40
2023-03-28T08:22:02.887Z,35.40
2023-03-28T08:24:54.119Z,35.30
2023-03-28T08:27:25.857Z,35.30
2023-03-28T08:29:57.281Z,35.30
2023-03-28T08:32:28.931Z,35.30
2023-03-28T08:35:01.584Z,35.30
2023-03-28T08:37:33.220Z,35.30
2023-03-28T08:40:05.694Z,35.20
2023-03-28T08:42:54.447Z,35.20
2023-03-28T08:45:37.059Z,35.10
2023-03-28T08:48:29.092Z,35.00
2023-03-28T08:51:17.773Z,34.90
2023-03-28T08:53:51.588Z,34.90
2023-03-28T08:56:23.177Z,34.80
2023-03-28T08:58:59.384Z,34.70
2023-03-28T09:01:30.928Z,34.70
2023-03-28T09:04:03.206Z,34.60
2023-03-28T09:06:40.784Z,34.50
2023-03-28T09:09:22.964Z,34.50
2023-03-28T09:12:30.189Z,34.50
2023-03-28T09:15:24.307Z,34.40
2023-03-28T09:18:06.774Z,34.40
2023-03-28T09:20:43.007Z,34.40
2023-03-28T09:23:24.437Z,34.30
2023-03-28T09:26:07.246Z,34.30
2023-03-28T09:28:59.286Z,34.30
2023-03-28T09:31:42.191Z,34.30
2023-03-28T09:34:28.846Z,34.30
2023-03-28T09:37:02.629Z,34.30
2023-03-28T09:39:45.327Z,34.20
2023-03-28T09:42:21.584Z,34.30
2023-03-28T09:44:58.200Z,34.30
2023-03-28T09:47:29.939Z,34.30
2023-03-28T09:50:11.882Z,34.20
2023-03-28T09:52:34.774Z,34.30
2023-03-28T09:55:06.434Z,34.20
2023-03-28T09:58:02.915Z,34.20
2023-03-28T10:00:39.204Z,34.30
2023-03-28T10:03:11.583Z,34.20
2023-03-28T10:05:44.382Z,34.20
2023-03-28T10:08:27.405Z,34.20
2023-03-28T10:11:07.967Z,34.30
2023-03-28T10:13:44.247Z,34.30
2023-03-28T10:16:15.250Z,34.20
2023-03-28T10:18:46.848Z,34.20
2023-03-28T10:21:20.775Z,34.30
2023-03-28T10:24:03.446Z,34.20
2023-03-28T10:26:34.875Z,34.00
2023-03-28T10:29:09.452Z,33.80
2023-03-28T10:31:43.196Z,33.60
2023-03-28T10:34:16.877Z,33.50
2023-03-28T10:36:49.136Z,33.40
2023-03-28T10:39:34.347Z,33.40
2023-03-28T10:42:06.557Z,33.40
2023-03-28T10:44:38.793Z,33.40
2023-03-28T10:47:13.230Z,33.30
2023-03-28T10:49:56.105Z,33.30
2023-03-28T10:52:38.975Z,33.30
2023-03-28T10:55:32.291Z,33.20
2023-03-28T10:58:14.349Z,33.20
2023-03-28T11:01:05.634Z,33.10
2023-03-28T11:03:58.366Z,33.10
2023-03-28T11:06:40.685Z,33.10
2023-03-28T11:09:16.929Z,33.00
2023-03-28T11:12:19.838Z,33.10
2023-03-28T11:14:52.650Z,33.10
2023-03-28T11:17:26.414Z,33.10
2023-03-28T11:20:33.040Z,33.10
2023-03-28T11:23:18.303Z,33.10
2023-03-28T11:26:19.280Z,33.10
2023-03-28T11:29:01.768Z,33.10
2023-03-28T11:31:41.368Z,33.10
2023-03-28T11:34:29.852Z,33.10
2023-03-28T11:37:21.256Z,33.00
2023-03-28T11:39:57.673Z,33.10
2023-03-28T11:42:40.253Z,33.00
2023-03-28T11:45:16.536Z,33.10
2023-03-28T11:47:50.846Z,33.10
2023-03-28T11:50:30.369Z,33.10
2023-03-28T11:53:13.582Z,33.10
2023-03-28T11:55:53.343Z,33.10
2023-03-28T11:58:29.610Z,33.10
2023-03-28T12:01:12.460Z,33.20
2023-03-28T12:03:55.688Z,33.20
2023-03-28T12:06:52.130Z,33.20
2023-03-28T12:09:28.601Z,33.20
2023-03-28T12:12:05.078Z,33.20
2023-03-28T12:14:39.044Z,33.30
2023-03-28T12:17:28.155Z,33.30
2023-03-28T12:20:00.565Z,33.20
2023-03-28T12:22:34.217Z,33.20
2023-03-28T12:25:16.833Z,33.30
2023-03-28T12:28:05.435Z,33.30
2023-03-28T12:30:39.224Z,33.30
2023-03-28T12:33:44.483Z,33.20
2023-03-28T12:36:25.049Z,33.20
2023-03-28T12:39:04.848Z,33.20
2023-03-28T12:41:38.741Z,33.30
2023-03-28T12:44:23.230Z,33.20
2023-03-28T12:46:59.581Z,33.20
2023-03-28T12:49:39.711Z,33.20
2023-03-28T12:52:13.158Z,33.20
2023-03-28T12:55:02.303Z,33.20
2023-03-28T12:57:48.391Z,33.20
2023-03-28T13:00:20.240Z,33.10
2023-03-28T13:02:53.865Z,33.10
2023-03-28T13:05:42.390Z,33.10
2023-03-28T13:08:18.868Z,33.10
2023-03-28T13:11:13.957Z,33.10
2023-03-28T13:13:47.953Z,33.10
2023-03-28T13:16:27.950Z,33.10
2023-03-28T13:19:10.900Z,33.00
2023-03-28T13:21:56.545Z,33.00
2023-03-28T13:24:38.589Z,33.00
2023-03-28T13:27:13.355Z,33.00
2023-03-28T13:29:59.195Z,32.90
2023-03-28T13:32:33.745Z,32.90
2023-03-28T13:35:09.056Z,32.90
2023-03-28T13:37:48.321Z,32.90
2023-03-28T13:40:44.302Z,32.80
2023-03-28T13:43:33.429Z,32.80
2023-03-28T13:46:15.614Z,32.80
2023-03-28T13:48:55.672Z,32.80
2023-03-28T13:51:32.201Z,32.80
2023-03-28T13:54:12.263Z,32.80
2023-03-28T13:56:48.109Z,32.80
2023-03-28T13:59:46.015Z,32.80
2023-03-28T14:02:33.899Z,32.70
2023-03-28T14:05:22.938Z,32.80
2023-03-28T14:08:00.208Z,32.70
2023-03-28T14:10:36.715Z,32.70
2023-03-28T14:13:10.793Z,32.70
2023-03-28T14:15:43.321Z,32.70
2023-03-28T14:18:23.273Z,32.70
2023-03-28T14:20:57.309Z,32.70
2023-03-28T14:23:36.464Z,32.70
2023-03-28T14:26:12.740Z,32.70
2023-03-28T14:28:48.423Z,32.70
2023-03-28T14:31:39.580Z,32.60
2023-03-28T14:34:19.278Z,32.70
2023-03-28T14:37:07.352Z,32.60
2023-03-28T14:39:42.886Z,32.60
2023-03-28T14:42:23.166Z,32.50
2023-03-28T14:44:57.248Z,32.50
2023-03-28T14:47:30.864Z,32.40
2023-03-28T14:50:06.592Z,32.40
2023-03-28T14:52:39.550Z,32.40
2023-03-28T14:55:31.138Z,32.20
2023-03-28T14:58:06.509Z,32.30
2023-03-28T15:00:49.534Z,32.30
2023-03-28T15:03:23.557Z,32.20
2023-03-28T15:05:56.008Z,32.30
2023-03-28T15:08:37.178Z,32.20
2023-03-28T15:11:30.149Z,32.30
2023-03-28T15:14:09.700Z,32.20
2023-03-28T15:16:43.465Z,32.20
2023-03-28T15:19:32.912Z,32.20
2023-03-28T15:22:11.556Z,32.20
2023-03-28T15:24:47.928Z,32.20
2023-03-28T15:27:24.228Z,32.10
2023-03-28T15:30:06.343Z,32.00
2023-03-28T15:32:44.895Z,31.60
2023-03-28T15:35:31.765Z,31.00
2023-03-28T15:38:05.496Z,30.10
2023-03-28T15:40:47.953Z,29.30
2023-03-28T15:43:34.903Z,28.90
2023-03-28T15:46:18.905Z,28.60
2023-03-28T15:48:51.366Z,28.60
2023-03-28T15:51:48.832Z,28.60
2023-03-28T15:54:20.134Z,28.50
2023-03-28T15:56:43.562Z,28.00
2023-03-28T15:59:16.680Z,27.80
2023-03-28T16:01:49.156Z,27.60
2023-03-28T16:04:29.341Z,27.60
2023-03-28T16:07:05.706Z,27.50
2023-03-28T16:09:45.939Z,27.60
2023-03-28T16:12:17.800Z,27.60
2023-03-28T16:14:54.729Z,27.50
2023-03-28T16:17:33.560Z,27.40
2023-03-28T16:20:05.253Z,27.20
2023-03-28T16:22:36.584Z,27.10
2023-03-28T16:25:08.847Z,27.00
2023-03-28T16:27:40.256Z,26.90
2023-03-28T16:30:19.964Z,26.90
2023-03-28T16:32:51.404Z,26.90
2023-03-28T16:35:23.774Z,26.80
2023-03-28T16:37:55.324Z,26.80
2023-03-28T16:40:26.706Z,26.80
2023-03-28T16:42:58.330Z,26.80
2023-03-28T16:45:31.624Z,26.80
2023-03-28T16:48:03.111Z,26.70
2023-03-28T16:50:38.209Z,26.70
2023-03-28T16:53:09.519Z,26.70
2023-03-28T16:55:40.898Z,26.60
2023-03-28T16:58:12.191Z,26.60
2023-03-28T17:00:43.404Z,26.50
2023-03-28T17:03:18.250Z,26.50
2023-03-28T17:05:49.913Z,26.50
2023-03-28T17:08:21.194Z,26.40
2023-03-28T17:10:53.316Z,26.30
2023-03-28T17:13:24.452Z,26.30
2023-03-28T17:15:56.189Z,26.30
2023-03-28T17:18:27.901Z,26.30
2023-03-28T17:21:07.593Z,26.30
2023-03-28T17:23:39.863Z,26.30
2023-03-28T17:26:13.858Z,26.40
2023-03-28T17:28:45.164Z,26.30
2023-03-28T17:31:19.083Z,26.40
2023-03-28T17:33:50.688Z,26.40
2023-03-28T17:36:24.649Z,26.40
2023-03-28T17:38:58.048Z,26.40
2023-03-28T17:41:32.713Z,26.50
2023-03-28T17:44:05.982Z,26.50
2023-03-28T17:46:38.184Z,26.60
2023-03-28T17:49:09.516Z,26.60
2023-03-28T17:51:40.659Z,26.60
2023-03-28T17:54:13.367Z,26.70
2023-03-28T17:56:45.022Z,26.70
2023-03-28T17:59:15.856Z,26.70
2023-03-28T18:01:46.934Z,26.70
2023-03-28T18:04:18.693Z,26.70
2023-03-28T18:06:49.948Z,26.60
2023-03-28T18:09:20.911Z,26.50
2023-03-28T18:11:52.501Z,26.40
2023-03-28T18:14:23.244Z,26.40
2023-03-28T18:16:55.576Z,26.50
2023-03-28T18:19:26.466Z,26.40
2023-03-28T18:21:57.691Z,26.50
2023-03-28T18:24:29.176Z,26.50
2023-03-28T18:27:01.397Z,26.50
2023-03-28T18:29:32.675Z,26.50
2023-03-28T18:32:03.522Z,26.50
2023-03-28T18:34:34.501Z,26.50
2023-03-28T18:37:06.225Z,26.50
2023-03-28T18:39:38.419Z,26.50
2023-03-28T18:42:09.465Z,26.60
2023-03-28T18:44:41.550Z,26.60
2023-03-28T18:47:12.661Z,26.60
2023-03-28T18:49:44.785Z,26.60
2023-03-28T18:52:16.679Z,26.70
2023-03-28T18:54:49.322Z,26.70
2023-03-28T18:57:22.626Z,26.70
2023-03-28T19:02:33.443Z,26.80
2023-03-28T19:05:04.583Z,26.80
2023-03-28T19:07:37.302Z,26.80
2023-03-28T19:10:09.243Z,26.80
2023-03-28T19:12:40.449Z,26.80
2023-03-28T19:15:12.607Z,26.90
2023-03-28T19:17:43.954Z,26.90
2023-03-28T19:20:18.138Z,26.90
2023-03-28T19:22:49.325Z,26.90
2023-03-28T19:25:21.081Z,26.90
2023-03-28T19:27:53.433Z,26.90
2023-03-28T19:30:24.725Z,26.80
2023-03-28T19:32:56.068Z,26.80
2023-03-28T19:35:28.385Z,26.90
2023-03-28T19:37:59.539Z,26.80
2023-03-28T19:40:31.099Z,26.80
2023-03-28T19:43:02.680Z,26.70
2023-03-28T19:45:33.626Z,26.70
2023-03-28T19:48:04.737Z,26.70
2023-03-28T19:50:36.907Z,26.80
2023-03-28T19:53:07.953Z,26.80
2023-03-28T19:55:39.009Z,26.80
2023-03-28T19:58:13.917Z,26.80
2023-03-28T20:00:44.873Z,26.80
2023-03-28T20:03:15.899Z,26.80
2023-03-28T20:05:48.544Z,26.80
2023-03-28T20:08:39.700Z,26.80
2023-03-28T20:11:14.644Z,26.80
2023-03-28T20:13:46.214Z,26.80
2023-03-28T20:16:17.691Z,26.80
2023-03-28T20:18:49.317Z,26.80
2023-03-28T20:21:20.325Z,26.80
2023-03-28T20:23:52.297Z,26.80
2023-03-28T20:26:26.613Z,26.70
2023-03-28T20:29:00.460Z,26.70
2023-03-28T20:31:32.082Z,26.70
2023-03-28T20:34:03.264Z,26.60
2023-03-28T20:36:36.867Z,26.70
2023-03-28T20:39:08.038Z,26.60
2023-03-28T20:41:39.101Z,26.60
2023-03-28T20:44:09.846Z,26.60
2023-03-28T20:46:41.367Z,26.60
2023-03-28T20:49:12.125Z,26.60
2023-03-28T20:51:44.265Z,26.60
2023-03-28T20:54:14.997Z,26.50
2023-03-28T20:56:46.622Z,26.60
2023-03-28T20:59:17.667Z,26.60
2023-03-28T21:01:49.161Z,26.50
2023-03-28T21:04:19.957Z,26.50
2023-03-28T21:06:51.198Z,26.50
2023-03-28T21:09:23.349Z,26.50
2023-03-28T21:11:54.273Z,26.60
2023-03-28T21:14:25.011Z,26.50
2023-03-28T21:16:57.332Z,26.60
2023-03-28T21:19:28.625Z,26.60
2023-03-28T21:21:59.744Z,26.60
2023-03-28T21:24:30.462Z,26.60
2023-03-28T21:27:01.201Z,26.50
2023-03-28T21:29:32.550Z,26.60
2023-03-28T21:32:03.335Z,26.50
2023-03-28T21:34:35.849Z,26.50
2023-03-28T21:37:07.742Z,26.60
2023-03-28T21:39:38.886Z,26.50
2023-03-28T21:42:09.990Z,26.60
2023-03-28T21:44:41.191Z,26.60
2023-03-28T21:47:12.303Z,26.60
2023-03-28T21:49:44.706Z,26.60
2023-03-28T21:52:16.258Z,26.60
2023-03-28T21:54:47.367Z,26.60
2023-03-28T21:57:18.500Z,26.50
2023-03-28T21:59:49.601Z,26.50
2023-03-28T22:02:20.721Z,26.40
2023-03-28T22:04:52.254Z,26.50
2023-03-28T22:07:23.742Z,26.50
2023-03-28T22:09:55.405Z,26.50
2023-03-28T22:12:26.549Z,26.40
2023-03-28T22:14:57.821Z,26.50
2023-03-28T22:17:28.707Z,26.50
2023-03-28T22:20:00.919Z,26.50
2023-03-28T22:22:31.788Z,26.50
2023-03-28T22:25:02.619Z,26.50
2023-03-28T22:27:34.545Z,26.50
2023-03-28T22:30:05.518Z,26.50
2023-03-28T22:32:36.572Z,26.40
2023-03-28T22:35:08.487Z,26.40
2023-03-28T22:37:39.331Z,26.50
2023-03-28T22:40:12.294Z,26.40
2023-03-28T22:42:43.285Z,26.40
2023-03-28T22:45:14.328Z,26.40
2023-03-28T22:47:45.203Z,26.40
2023-03-28T22:50:16.882Z,26.40
2023-03-28T22:52:50.503Z,26.40
2023-03-28T22:55:23.187Z,26.40
2023-03-28T22:57:55.158Z,26.40
2023-03-28T23:00:26.123Z,26.50
2023-03-28T23:02:57.138Z,26.50
2023-03-28T23:05:29.189Z,26.50
2023-03-28T23:08:01.867Z,26.40
2023-03-28T23:10:33.080Z,26.50
2023-03-28T23:13:05.005Z,26.40
2023-03-28T23:15:37.036Z,26.50
2023-03-28T23:18:09.059Z,26.50
2023-03-28T23:20:40.861Z,26.40
2023-03-28T23:23:13.522Z,26.40
2023-03-28T23:25:46.114Z,26.40
2023-03-28T23:28:20.179Z,26.40
2023-03-28T23:30:49.909Z,26.40
2023-03-28T23:33:21.079Z,26.30
2023-03-28T23:35:52.246Z,26.30
2023-03-28T23:38:23.418Z,26.30
2023-03-28T23:40:54.540Z,26.40
2023-03-28T23:43:25.952Z,26.40
2023-03-28T23:45:57.088Z,26.30
2023-03-28T23:48:28.678Z,26.20
2023-03-28T23:51:00.244Z,26.20
2023-03-28T23:53:31.990Z,26.20
2023-03-28T23:56:04.624Z,26.10
2023-03-28T23:58:35.794Z,26.10
